Κάμερα προς Χιονοδρομικό webcam facing ski center


Κάμερα προς Νότο webcam facing south


Ραντάρ Κεραυνών blitzortung!


Ραντάρ Βροχής rain snow radar


Άλλες σελίδες καιρού:

Hotel Skamnos

Arachova Weather Station

Skamnos Weather Station

Skamnos Weather2

Arachova Weather2

WU Skamnos

WU Arachova


Γειτονικοί σταθμοί:

Parnassos Snow Forecast

Parnassos Snow Report

Kelaria 1950m

Kelaria 2240m

Fterolaka 2080m



There are multiple Weather-warnings   Click here for more information

Εκθέσεις METAR

  
1089 - Arachova Meteo, Greece
Distance from station: Ν 10km
Updated: 25-09-2017 12:49
NOT Current
Κυρίως νεφελώδης
Κυρίως νεφελώδης  
 Ανεμος από ΑΝΑ
'Ανεμος: ΑΝΑ 7 km/h
Θερμοκρασία:  20°C
Σημείο Δρόσου:  10°C
Υγρασία:  53%
Βαρόμετρο:  1015 hPa
Νεφελώδης:  Κυρίως νεφελώδης
Visibility:  10 km
Cloud details:  Κυρίως νεφελώδης 1189 m
2017/09/25 09:49 1089 250949Z 11204KT 9999 BKN039 20/10 Q1015
1155 - Arachova2, Greece
Distance from station: Ν 10km
Updated: 25-09-2017 16:19
Νεφελώδης
Νεφελώδης  
 Ανεμος από Α
'Ανεμος: Α 4 km/h
Θερμοκρασία:  17°C
Σημείο Δρόσου:  11°C
Υγρασία:  68%
Βαρόμετρο:  1016 hPa
Νεφελώδης:  Νεφελώδης
Visibility:  9 km
Cloud details:  Νεφελώδης 732 m
2017/09/25 13:19 1155 251319Z 09002KT 9000 OVC024 17/11 Q1016
1184 - Arachova VillaFiloxenia, Greece
Distance from station: Ν 10km
Updated: 09-05-2017 15:04
NOT Current
Μερικώς νεφελώδης
Μερικώς νεφελώδης  
 Ανεμος από calm
'Ανεμος: Άπνοια
Θερμοκρασία:  17°C
Σημείο Δρόσου:  9°C
Υγρασία:  59%
Βαρόμετρο:  1007 hPa
Νεφελώδης:  Μερικώς νεφελώδης
Visibility:  10 km
Cloud details:  Μερικώς νεφελώδης 1006 m
2017/05/09 12:04 1184 091204Z 00000KT 9999 SCT033 17/09 Q1007
1250 - Parnassos Kelaria 1950m, Greece
Distance from station: Α 3km
Updated: 25-09-2017 16:19
Νεφελώδης
Νεφελώδης  
 Ανεμος από Δ
'Ανεμος: Δ 7 km/h
Θερμοκρασία:  8°C
Wind Chill:  7°C
Σημείο Δρόσου:  7°C
Υγρασία:  93%
Βαρόμετρο:  1017 hPa
Νεφελώδης:  Νεφελώδης
Visibility:  7 km
Cloud details:  Νεφελώδης 2134 m
2017/09/25 13:19 1250 251319Z 27004KT 7000 OVC070 08/07 Q1017
1126 - Parnassos Fterolaka 2080m, Greece
Distance from station: Α 3km
Updated: 21-03-2015 01:04
NOT Current
Λίγα σύννεφα
Λίγα σύννεφα  
 Ανεμος από calm
'Ανεμος: Άπνοια
Θερμοκρασία:  -11°C
Σημείο Δρόσου:  -11°C
Υγρασία:  100%
Βαρόμετρο:  1019 hPa
Νεφελώδης:  Λίγα σύννεφα
Visibility:  6 km
Cloud details:  Λίγα σύννεφα 305 m
2015/03/20 23:04 1126 202304Z 00000KT 6000 FEW010 M11/M11 Q1019
1382 - Parnassos Helcules 2240m, Greece
Distance from station: Α 3km
Updated: 20-04-2015 13:20
NOT Current
Ομίχλη
Ομίχλη  
 Ανεμος από ΝΔ
'Ανεμος: ΝΔ 7 km/h
Θερμοκρασία:  1°C
Wind Chill:  -2°C
Σημείο Δρόσου:  1°C
Υγρασία:  100%
Βαρόμετρο:  1009 hPa
Περίληψη:  Ομίχλη
Visibility:  5 km
2015/04/20 10:20 1382 201020Z 22504KT 5000 FG 01/01 Q1009
1219 - Anrikyra, Greece
Distance from station: Ν 40km
Updated: 25-09-2017 16:19
Κυρίως νεφελώδης
Κυρίως νεφελώδης  
 Ανεμος από ΒΑ
'Ανεμος: ΒΑ 6 km/h
Θερμοκρασία:  23°C
Σημείο Δρόσου:  14°C
Υγρασία:  57%
Βαρόμετρο:  1013 hPa
Νεφελώδης:  Κυρίως νεφελώδης
Visibility:  10 km
Cloud details:  Κυρίως νεφελώδης 1067 m
2017/09/25 13:19 1219 251319Z 04503KT 9999 BKN035 23/14 Q1013
1015 - Galaxeidi, Greece
Distance from station: Ν 40km
Updated: 21-09-2017 08:18
NOT Current
Αίθριος
Αίθριος  
 Ανεμος από ΔΒΔ
'Ανεμος: ΔΒΔ 11 km/h
Θερμοκρασία:  20°C
Σημείο Δρόσου:  11°C
Υγρασία:  56%
Βαρόμετρο:  1022 hPa
Νεφελώδης:  Αίθριος
Visibility:  10 km
2017/09/21 05:18 1015 210518Z 29206KT 9999 SKC 20/11 Q1022
1088 - Amfikleia, Greece
Distance from station: Β 10km
Updated: 25-09-2017 16:19
Μερικώς νεφελώδης
Μερικώς νεφελώδης  
 Ανεμος από calm
'Ανεμος: Άπνοια
Θερμοκρασία:  22°C
Σημείο Δρόσου:  13°C
Υγρασία:  57%
Βαρόμετρο:  1015 hPa
Νεφελώδης:  Μερικώς νεφελώδης
Visibility:  10 km
Cloud details:  Μερικώς νεφελώδης 1097 m
2017/09/25 13:19 1088 251319Z 00000KT 9999 SCT036 22/13 Q1015
1337 - Polydroso, Greece
Distance from station: Β 10km
Updated: 25-09-2017 16:19
Νεφελώδης
Νεφελώδης  
 Ανεμος από Δ
'Ανεμος: Δ 4 km/h
Θερμοκρασία:  22°C
Σημείο Δρόσου:  13°C
Υγρασία:  57%
Βαρόμετρο:  1016 hPa
Νεφελώδης:  Νεφελώδης
Visibility:  10 km
Cloud details:  Νεφελώδης 1097 m
2017/09/25 13:19 1337 251319Z 27002KT 9999 OVC036 22/13 Q1016

Αρχικά scripts από  Saratoga-weather.org Adapted for the template by  Weerstation Leuven